createdAt,value
2019-05-18T00:03:23.329Z,11.49
2019-05-18T00:07:27.601Z,11.47
2019-05-18T00:11:31.846Z,11.43
2019-05-18T00:15:36.220Z,11.36
2019-05-18T00:19:40.439Z,11.38
2019-05-18T00:23:44.703Z,11.36
2019-05-18T00:27:48.922Z,11.35
2019-05-18T00:31:53.146Z,11.35
2019-05-18T00:35:57.377Z,11.30
2019-05-18T00:40:01.614Z,11.25
2019-05-18T00:44:05.935Z,11.21
2019-05-18T00:48:10.165Z,11.13
2019-05-18T00:52:14.338Z,11.13
2019-05-18T00:56:18.581Z,11.17
2019-05-18T01:00:23.401Z,11.17
2019-05-18T01:04:27.942Z,11.14
2019-05-18T01:08:32.183Z,11.13
2019-05-18T01:12:36.354Z,11.09
2019-05-18T01:16:40.616Z,11.03
2019-05-18T01:20:46.023Z,11.01
2019-05-18T01:24:50.210Z,10.99
2019-05-18T01:28:57.499Z,10.96
2019-05-18T01:33:01.747Z,10.92
2019-05-18T01:37:06.177Z,10.88
2019-05-18T01:41:10.371Z,10.80
2019-05-18T01:45:17.201Z,10.80
2019-05-18T01:49:21.386Z,10.78
2019-05-18T01:53:25.820Z,10.73
2019-05-18T01:57:30.061Z,10.71
2019-05-18T02:01:34.256Z,10.66
2019-05-18T02:05:38.583Z,10.62
2019-05-18T02:09:42.894Z,10.62
2019-05-18T02:13:47.150Z,10.57
2019-05-18T02:17:51.368Z,10.55
2019-05-18T02:21:55.566Z,10.54
2019-05-18T02:25:59.835Z,10.53
2019-05-18T02:30:04.535Z,10.50
2019-05-18T02:34:08.779Z,10.48
2019-05-18T02:38:16.462Z,10.49
2019-05-18T02:42:20.843Z,10.50
2019-05-18T02:46:25.403Z,10.50
2019-05-18T02:50:29.732Z,10.51
2019-05-18T02:54:33.981Z,10.53
2019-05-18T02:58:38.628Z,10.49
2019-05-18T03:02:42.913Z,10.45
2019-05-18T03:06:47.138Z,10.37
2019-05-18T03:10:51.410Z,10.35
2019-05-18T03:14:55.702Z,10.30
2019-05-18T03:19:08.268Z,10.24
2019-05-18T03:23:05.955Z,10.18
2019-05-18T03:27:10.174Z,10.15
2019-05-18T03:31:14.417Z,10.09
2019-05-18T03:35:18.611Z,10.08
2019-05-18T03:39:22.861Z,10.08
2019-05-18T03:43:27.080Z,10.03
2019-05-18T03:47:31.389Z,9.99
2019-05-18T03:51:35.771Z,9.97
2019-05-18T03:55:40.365Z,9.92
2019-05-18T03:59:44.558Z,9.88
2019-05-18T04:03:48.849Z,9.84
2019-05-18T04:07:53.115Z,9.86
2019-05-18T04:11:57.400Z,9.83
2019-05-18T04:16:01.668Z,9.84
2019-05-18T04:20:06.452Z,9.87
2019-05-18T04:24:10.762Z,9.86
2019-05-18T04:28:15.015Z,9.89
2019-05-18T04:32:19.226Z,9.91
2019-05-18T04:36:23.733Z,9.92
2019-05-18T04:40:27.959Z,9.95
2019-05-18T04:44:32.203Z,9.97
2019-05-18T04:48:36.454Z,9.99
2019-05-18T04:52:40.703Z,10.03
2019-05-18T04:56:44.916Z,10.10
2019-05-18T05:00:49.161Z,10.17
2019-05-18T05:04:56.606Z,10.28
2019-05-18T05:08:59.353Z,10.41
2019-05-18T05:13:03.611Z,10.55
2019-05-18T05:17:07.830Z,10.66
2019-05-18T05:21:12.075Z,10.81
2019-05-18T05:25:16.333Z,10.97
2019-05-18T05:29:20.733Z,11.15
2019-05-18T05:33:24.967Z,11.36
2019-05-18T05:37:29.431Z,11.57
2019-05-18T05:41:33.671Z,11.77
2019-05-18T05:45:37.926Z,12.00
2019-05-18T05:49:42.142Z,12.20
2019-05-18T05:53:46.761Z,12.41
2019-05-18T05:57:51.024Z,12.65
2019-05-18T06:01:55.454Z,13.00
2019-05-18T06:05:59.669Z,13.00
2019-05-18T06:10:04.053Z,13.20
2019-05-18T06:14:08.297Z,13.39
2019-05-18T06:18:12.522Z,13.58
2019-05-18T06:22:16.931Z,13.76
2019-05-18T06:26:24.153Z,13.94
2019-05-18T06:30:27.163Z,14.14
2019-05-18T06:34:31.409Z,14.30
2019-05-18T06:38:35.678Z,14.45
2019-05-18T06:42:39.919Z,14.64
2019-05-18T06:46:44.245Z,14.82
2019-05-18T06:50:48.712Z,15.00
2019-05-18T06:54:52.939Z,15.15
2019-05-18T06:58:59.505Z,15.26
2019-05-18T07:03:04.035Z,15.41
2019-05-18T07:07:08.305Z,15.58
2019-05-18T07:11:12.611Z,15.73
2019-05-18T07:15:18.575Z,15.88
2019-05-18T07:19:23.024Z,16.00
2019-05-18T07:23:27.273Z,16.18
2019-05-18T07:27:31.519Z,16.30
2019-05-18T07:31:35.753Z,16.34
2019-05-18T07:35:39.925Z,16.47
2019-05-18T07:39:44.187Z,16.57
2019-05-18T07:43:48.583Z,16.67
2019-05-18T07:47:52.834Z,16.75
2019-05-18T07:51:57.380Z,16.94
2019-05-18T07:56:01.611Z,17.11
2019-05-18T08:00:06.909Z,17.21
2019-05-18T08:04:11.188Z,17.34
2019-05-18T08:08:15.438Z,17.54
2019-05-18T08:12:19.661Z,17.73
2019-05-18T08:16:23.990Z,17.88
2019-05-18T08:20:28.444Z,18.05
2019-05-18T08:24:32.646Z,18.15
2019-05-18T08:28:36.879Z,18.19
2019-05-18T08:32:41.244Z,18.13
2019-05-18T08:36:45.491Z,18.24
2019-05-18T08:40:49.711Z,18.37
2019-05-18T08:44:54.018Z,18.42
2019-05-18T08:48:58.255Z,18.47
2019-05-18T08:53:02.508Z,18.44
2019-05-18T08:57:06.905Z,18.43
2019-05-18T09:01:11.175Z,18.41
2019-05-18T09:05:15.724Z,18.42
2019-05-18T09:09:19.935Z,18.41
2019-05-18T09:13:24.203Z,18.37
2019-05-18T09:17:28.408Z,18.36
2019-05-18T09:21:32.678Z,18.32
2019-05-18T09:25:37.277Z,18.39
2019-05-18T09:29:41.480Z,18.53
2019-05-18T09:33:45.745Z,18.60
2019-05-18T09:37:49.963Z,18.60
2019-05-18T09:41:55.137Z,18.54
2019-05-18T09:45:59.390Z,18.57
2019-05-18T09:50:03.697Z,18.61
2019-05-18T09:54:07.943Z,18.66
2019-05-18T09:58:12.219Z,18.67
2019-05-18T10:02:16.915Z,18.72
2019-05-18T10:06:21.130Z,18.78
2019-05-18T10:10:25.376Z,18.85
2019-05-18T10:14:29.634Z,18.93
2019-05-18T10:18:33.941Z,19.05
2019-05-18T10:22:51.184Z,19.08
2019-05-18T10:26:44.112Z,19.25
2019-05-18T10:30:48.352Z,19.29
2019-05-18T10:34:52.609Z,19.22
2019-05-18T10:38:56.856Z,19.14
2019-05-18T10:43:01.159Z,19.15
2019-05-18T10:47:05.414Z,19.18
2019-05-18T10:51:09.922Z,19.17
2019-05-18T10:55:14.493Z,19.21
2019-05-18T10:59:18.689Z,19.27
2019-05-18T11:03:23.305Z,19.36
2019-05-18T11:07:29.062Z,19.44
2019-05-18T11:11:33.400Z,19.52
2019-05-18T11:15:37.592Z,19.57
2019-05-18T11:19:41.820Z,19.64
2019-05-18T11:23:48.014Z,19.71
2019-05-18T11:27:52.032Z,19.78
2019-05-18T11:31:56.407Z,19.96
2019-05-18T11:36:00.697Z,20.17
2019-05-18T11:40:05.334Z,20.36
2019-05-18T11:44:10.943Z,20.43
2019-05-18T11:48:15.278Z,20.54
2019-05-18T11:52:19.826Z,20.61
2019-05-18T11:56:24.052Z,20.64
2019-05-18T12:00:28.906Z,20.67
2019-05-18T12:04:33.165Z,20.71
2019-05-18T12:08:37.390Z,20.76
2019-05-18T12:12:41.655Z,20.89
2019-05-18T12:16:45.895Z,20.95
2019-05-18T12:20:50.083Z,20.88
2019-05-18T12:24:54.305Z,20.86
2019-05-18T12:28:58.544Z,20.91
2019-05-18T12:33:02.803Z,20.96
2019-05-18T12:37:07.052Z,21.02
2019-05-18T12:41:11.874Z,21.10
2019-05-18T12:45:16.778Z,21.10
2019-05-18T12:49:21.033Z,21.11
2019-05-18T12:53:25.243Z,21.20
2019-05-18T12:57:29.606Z,21.30
2019-05-18T13:01:33.807Z,21.36
2019-05-18T13:05:38.072Z,21.39
2019-05-18T13:09:42.334Z,21.40
2019-05-18T13:13:46.585Z,21.43
2019-05-18T13:17:50.852Z,21.47
2019-05-18T13:21:55.038Z,21.50
2019-05-18T13:25:59.276Z,21.50
2019-05-18T13:30:03.559Z,21.42
2019-05-18T13:34:07.820Z,21.38
2019-05-18T13:38:12.039Z,21.37
2019-05-18T13:42:16.293Z,21.38
2019-05-18T13:46:20.583Z,21.33
2019-05-18T13:50:25.124Z,21.30
2019-05-18T13:54:29.538Z,21.33
2019-05-18T13:58:33.736Z,21.33
2019-05-18T14:02:38.096Z,21.37
2019-05-18T14:06:42.382Z,21.39
2019-05-18T14:10:46.628Z,21.39
2019-05-18T14:14:50.896Z,21.40
2019-05-18T14:18:55.129Z,21.39
2019-05-18T14:22:59.429Z,21.41
2019-05-18T14:27:03.666Z,21.40
2019-05-18T14:31:07.885Z,21.42
2019-05-18T14:35:12.840Z,21.43
2019-05-18T14:39:17.081Z,21.44
2019-05-18T14:43:21.326Z,21.47
2019-05-18T14:47:27.547Z,21.48
2019-05-18T14:51:31.830Z,21.52
2019-05-18T14:55:36.040Z,21.53
2019-05-18T14:59:40.509Z,21.51
2019-05-18T15:03:44.750Z,21.48
2019-05-18T15:07:48.978Z,21.50
2019-05-18T15:11:53.214Z,21.47
2019-05-18T15:15:57.809Z,21.42
2019-05-18T15:20:02.285Z,21.41
2019-05-18T15:24:08.769Z,21.37
2019-05-18T15:28:12.867Z,21.37
2019-05-18T15:32:17.061Z,21.37
2019-05-18T15:36:21.639Z,21.30
2019-05-18T15:40:25.875Z,21.24
2019-05-18T15:44:30.110Z,21.20
2019-05-18T15:48:34.388Z,21.18
2019-05-18T15:52:38.579Z,21.10
2019-05-18T15:56:44.320Z,21.05
2019-05-18T16:00:48.714Z,21.00
2019-05-18T16:04:53.056Z,20.92
2019-05-18T16:08:57.267Z,20.90
2019-05-18T16:13:01.589Z,20.83
2019-05-18T16:17:05.812Z,20.79
2019-05-18T16:21:10.004Z,20.72
2019-05-18T16:25:14.999Z,20.66
2019-05-18T16:29:19.222Z,20.66
2019-05-18T16:33:23.469Z,20.63
2019-05-18T16:37:27.858Z,20.60
2019-05-18T16:41:32.404Z,20.57
2019-05-18T16:45:36.653Z,20.56
2019-05-18T16:49:40.927Z,20.57
2019-05-18T16:53:49.473Z,20.55
2019-05-18T16:57:51.346Z,20.55
2019-05-18T17:01:55.639Z,20.53
2019-05-18T17:06:03.310Z,20.51
2019-05-18T17:10:09.477Z,20.47
2019-05-18T17:14:14.077Z,20.47
2019-05-18T17:18:18.366Z,20.47
2019-05-18T17:22:22.618Z,20.46
2019-05-18T17:26:26.835Z,20.41
2019-05-18T17:30:31.103Z,20.32
2019-05-18T17:34:35.326Z,20.27
2019-05-18T17:38:39.578Z,20.21
2019-05-18T17:42:43.871Z,20.16
2019-05-18T17:46:48.113Z,20.11
2019-05-18T17:50:52.568Z,20.07
2019-05-18T17:54:57.542Z,20.03
2019-05-18T17:59:01.918Z,19.97
2019-05-18T18:03:06.178Z,19.91
2019-05-18T18:07:10.467Z,19.84
2019-05-18T18:11:14.789Z,19.79
2019-05-18T18:15:19.354Z,19.68
2019-05-18T18:19:23.613Z,19.64
2019-05-18T18:23:27.859Z,19.56
2019-05-18T18:27:32.117Z,19.50
2019-05-18T18:31:36.383Z,19.45
2019-05-18T18:35:40.634Z,19.38
2019-05-18T18:39:49.434Z,19.32
2019-05-18T18:43:54.044Z,19.26
2019-05-18T18:47:58.258Z,19.17
2019-05-18T18:52:02.538Z,19.14
2019-05-18T18:56:07.066Z,19.09
2019-05-18T19:00:13.497Z,18.98
2019-05-18T19:04:17.746Z,18.89
2019-05-18T19:08:22.311Z,18.81
2019-05-18T19:12:26.728Z,18.75
2019-05-18T19:16:31.593Z,18.69
2019-05-18T19:20:35.874Z,18.56
2019-05-18T19:24:40.160Z,18.49
2019-05-18T19:28:44.334Z,18.43
2019-05-18T19:32:48.605Z,18.38
2019-05-18T19:36:53.110Z,18.30
2019-05-18T19:40:57.383Z,18.27
2019-05-18T19:45:01.632Z,18.22
2019-05-18T19:49:05.879Z,18.18
2019-05-18T19:53:10.198Z,18.12
2019-05-18T19:57:14.447Z,18.08
2019-05-18T20:01:18.722Z,17.96
2019-05-18T20:05:23.276Z,17.88
2019-05-18T20:09:27.523Z,17.84
2019-05-18T20:13:31.820Z,17.80
2019-05-18T20:17:36.435Z,17.75
2019-05-18T20:21:40.812Z,17.67
2019-05-18T20:25:45.016Z,17.64
2019-05-18T20:29:49.384Z,17.60
2019-05-18T20:33:53.638Z,17.53
2019-05-18T20:37:57.909Z,17.48
2019-05-18T20:42:02.301Z,17.42
2019-05-18T20:46:06.667Z,17.35
2019-05-18T20:50:11.338Z,17.29
2019-05-18T20:54:15.886Z,17.24
2019-05-18T20:58:20.162Z,17.16
2019-05-18T21:02:24.644Z,17.11
2019-05-18T21:06:28.990Z,17.08
2019-05-18T21:10:33.453Z,17.07
2019-05-18T21:14:37.709Z,17.04
2019-05-18T21:18:42.009Z,16.97
2019-05-18T21:22:46.285Z,16.98
2019-05-18T21:26:50.509Z,16.95
2019-05-18T21:30:55.396Z,16.92
2019-05-18T21:34:59.682Z,16.88
2019-05-18T21:39:05.482Z,16.83
2019-05-18T21:43:09.660Z,16.77
2019-05-18T21:47:13.942Z,16.69
2019-05-18T21:51:18.284Z,16.62
2019-05-18T21:55:22.522Z,16.55
2019-05-18T21:59:26.769Z,16.50
2019-05-18T22:03:31.059Z,16.48
2019-05-18T22:07:35.475Z,16.43
2019-05-18T22:11:39.726Z,16.35
2019-05-18T22:15:43.979Z,16.30
2019-05-18T22:19:48.234Z,16.25
2019-05-18T22:23:52.431Z,16.23
2019-05-18T22:27:57.005Z,16.22
2019-05-18T22:32:01.253Z,16.23
2019-05-18T22:36:05.603Z,16.21
2019-05-18T22:40:09.837Z,16.18
2019-05-18T22:44:14.021Z,16.17
2019-05-18T22:48:18.278Z,16.16
2019-05-18T22:52:22.524Z,16.17
2019-05-18T22:56:27.176Z,16.15
2019-05-18T23:00:31.443Z,16.12
2019-05-18T23:04:36.565Z,16.07
2019-05-18T23:08:40.998Z,16.04
2019-05-18T23:12:45.255Z,15.98
2019-05-18T23:16:49.473Z,15.95
2019-05-18T23:20:53.723Z,15.94
2019-05-18T23:24:57.978Z,15.92
2019-05-18T23:29:02.229Z,15.89
2019-05-18T23:33:06.500Z,15.85
2019-05-18T23:37:10.733Z,15.78
2019-05-18T23:41:14.988Z,15.70
2019-05-18T23:45:19.234Z,15.61
2019-05-18T23:49:23.441Z,15.57
2019-05-18T23:53:27.718Z,15.49
2019-05-18T23:57:31.919Z,15.35
